Time;durP1;ratioP1;P1;durP2;ratioP2;P2;SDS_P1;SDS_P2;PMS_P1;PMS_P2;Temp;Humidity;BMP_temperature;BMP_pressure;BME280_temperature;BME280_humidity;BME280_pressure;Samples;Min_cycle;Max_cycle;Signal;HPM_P1;HPM_P2
2021/04/07 00:01:49;;;;;;;7.18;0.88;;;;;;;;;;4958765;28;20139;-82
2021/04/07 00:04:15;;;;;;;8.30;1.30;;;;;;;;;;4974259;28;20053;-82
2021/04/07 00:06:41;;;;;;;7.13;1.08;;;;;;;;;;4974570;28;20121;-82
2021/04/07 00:09:07;;;;;;;8.45;1.83;;;;;;;;;;4974565;28;20089;-81
2021/04/07 00:11:33;;;;;;;6.55;0.90;;;;;;;;;;4974471;28;20050;-81
2021/04/07 00:14:00;;;;;;;6.88;1.20;;;;;;;;;;4974542;28;20065;-81
2021/04/07 00:16:27;;;;;;;6.15;1.77;;;;;;;;;;4974380;28;20039;-81
2021/04/07 00:18:53;;;;;;;4.57;1.13;;;;;;;;;;4974350;28;20363;-81
2021/04/07 00:21:19;;;;;;;5.35;0.98;;;;;;;;;;4958423;28;20085;-81
2021/04/07 00:23:45;;;;;;;10.65;1.20;;;;;;;;;;4974291;28;20047;-81
2021/04/07 00:26:11;;;;;;;11.77;1.25;;;;;;;;;;4975164;28;20137;-81
2021/04/07 00:28:37;;;;;;;5.82;1.17;;;;;;;;;;4958271;28;20038;-81
2021/04/07 00:31:03;;;;;;;14.07;1.50;;;;;;;;;;4975246;28;20049;-81
2021/04/07 00:33:29;;;;;;;7.70;0.98;;;;;;;;;;4958042;28;20038;-80
2021/04/07 00:35:55;;;;;;;6.10;1.20;;;;;;;;;;4942045;28;20031;-80
2021/04/07 00:38:21;;;;;;;11.52;1.70;;;;;;;;;;4942228;28;20042;-81
2021/04/07 00:40:47;;;;;;;7.10;1.20;;;;;;;;;;4957857;28;20049;-80
2021/04/07 00:43:13;;;;;;;5.00;1.08;;;;;;;;;;4958001;28;20047;-78
2021/04/07 00:45:39;;;;;;;6.78;1.13;;;;;;;;;;4975015;28;20041;-80
2021/04/07 00:48:05;;;;;;;6.85;1.35;;;;;;;;;;4957878;28;20039;-79
2021/04/07 00:50:32;;;;;;;9.10;1.67;;;;;;;;;;4957742;28;20066;-79
2021/04/07 00:52:58;;;;;;;9.90;1.17;;;;;;;;;;4957955;28;20046;-80
2021/04/07 00:55:32;;;;;;;6.05;1.05;;;;;;;;;;4957861;28;20061;-80
2021/04/07 00:57:58;;;;;;;2.33;0.90;;;;;;;;;;4957789;28;20047;-80
2021/04/07 01:00:24;;;;;;;8.52;1.15;;;;;;;;;;4957595;28;20043;-79
2021/04/07 01:02:54;;;;;;;4.60;1.15;;;;;;;;;;4974913;28;20400;-80
2021/04/07 01:05:20;;;;;;;4.78;1.23;;;;;;;;;;4957784;28;20042;-79
2021/04/07 01:07:46;;;;;;;8.38;1.50;;;;;;;;;;4974653;28;20526;-79
2021/04/07 01:10:13;;;;;;;3.60;0.90;;;;;;;;;;4957380;28;20042;-80
2021/04/07 01:12:39;;;;;;;5.20;0.80;;;;;;;;;;4957479;28;20035;-78
2021/04/07 01:15:06;;;;;;;7.13;1.13;;;;;;;;;;4956947;28;20122;-80
2021/04/07 01:17:32;;;;;;;4.30;1.00;;;;;;;;;;4974166;28;20445;-79
2021/04/07 01:19:58;;;;;;;5.82;1.17;;;;;;;;;;4957405;28;20482;-79
2021/04/07 01:22:24;;;;;;;4.25;1.00;;;;;;;;;;4957242;28;20039;-79
2021/04/07 01:24:50;;;;;;;8.35;0.98;;;;;;;;;;4957250;28;20191;-81
2021/04/07 01:27:16;;;;;;;12.60;1.23;;;;;;;;;;4974089;28;20229;-80
2021/04/07 01:29:42;;;;;;;8.20;1.00;;;;;;;;;;4974244;28;20093;-81
2021/04/07 01:32:08;;;;;;;6.75;1.10;;;;;;;;;;4941015;28;20046;-82
2021/04/07 01:34:34;;;;;;;6.95;1.10;;;;;;;;;;4974148;28;20049;-80
2021/04/07 01:37:01;;;;;;;7.55;1.10;;;;;;;;;;4956866;28;20035;-81
2021/04/07 01:39:27;;;;;;;7.93;1.50;;;;;;;;;;4957135;28;20094;-80
2021/04/07 01:41:53;;;;;;;5.65;1.45;;;;;;;;;;4974059;28;20045;-78
2021/04/07 01:44:19;;;;;;;8.52;1.30;;;;;;;;;;4957018;28;20046;-80
2021/04/07 01:46:46;;;;;;;7.13;1.35;;;;;;;;;;4956561;28;20090;-80
2021/04/07 01:49:12;;;;;;;8.00;1.42;;;;;;;;;;4973859;28;20035;-78
2021/04/07 01:51:39;;;;;;;8.27;1.50;;;;;;;;;;4973839;28;20054;-80
2021/04/07 01:54:05;;;;;;;4.38;1.10;;;;;;;;;;4956717;28;20035;-80
2021/04/07 01:56:32;;;;;;;8.88;1.17;;;;;;;;;;4956613;28;20115;-79
2021/04/07 01:58:58;;;;;;;4.65;1.00;;;;;;;;;;4956748;28;20046;-81
2021/04/07 02:01:24;;;;;;;9.60;0.93;;;;;;;;;;4973736;28;20085;-80
2021/04/07 02:03:50;;;;;;;7.93;1.13;;;;;;;;;;4973666;28;20046;-80
2021/04/07 02:06:16;;;;;;;5.65;0.82;;;;;;;;;;4973536;28;20039;-81
2021/04/07 02:08:42;;;;;;;5.20;0.82;;;;;;;;;;4940507;28;20431;-80
2021/04/07 02:11:08;;;;;;;8.30;1.20;;;;;;;;;;4956308;28;20054;-80
2021/04/07 02:13:34;;;;;;;6.22;1.17;;;;;;;;;;4973532;28;20049;-79
2021/04/07 02:16:00;;;;;;;7.57;1.15;;;;;;;;;;4973401;28;20042;-80
2021/04/07 02:18:26;;;;;;;5.45;0.90;;;;;;;;;;4956444;28;20398;-80
2021/04/07 02:20:52;;;;;;;10.60;1.10;;;;;;;;;;4973340;28;20123;-81
2021/04/07 02:23:18;;;;;;;3.10;0.70;;;;;;;;;;4973452;28;20053;-80
2021/04/07 02:25:44;;;;;;;4.75;0.75;;;;;;;;;;4956082;28;20046;-81
2021/04/07 02:28:10;;;;;;;4.25;0.90;;;;;;;;;;4973200;28;20047;-80
2021/04/07 02:30:36;;;;;;;5.28;0.95;;;;;;;;;;4940327;28;20093;-81
2021/04/07 02:33:02;;;;;;;5.53;0.90;;;;;;;;;;4956162;28;20039;-81
2021/04/07 02:35:28;;;;;;;5.22;1.20;;;;;;;;;;4973366;28;20066;-80
2021/04/07 02:37:54;;;;;;;7.20;1.92;;;;;;;;;;4973193;28;20122;-80
2021/04/07 02:40:20;;;;;;;10.93;1.92;;;;;;;;;;4972999;28;20066;-80
2021/04/07 02:42:46;;;;;;;5.97;0.80;;;;;;;;;;4973111;28;20041;-80
2021/04/07 02:45:13;;;;;;;5.68;0.82;;;;;;;;;;4956013;28;20043;-81
2021/04/07 02:47:39;;;;;;;4.10;0.90;;;;;;;;;;4955920;28;20494;-80
2021/04/07 02:50:05;;;;;;;6.60;0.90;;;;;;;;;;4973172;28;20070;-80
2021/04/07 02:52:32;;;;;;;3.40;0.80;;;;;;;;;;4956151;28;20109;-80
2021/04/07 02:54:58;;;;;;;4.57;0.90;;;;;;;;;;4973182;28;20043;-80
2021/04/07 02:57:24;;;;;;;3.15;0.65;;;;;;;;;;4955927;28;20093;-79
2021/04/07 02:59:50;;;;;;;5.75;0.95;;;;;;;;;;4973088;28;20038;-80
2021/04/07 03:02:16;;;;;;;6.65;1.00;;;;;;;;;;4955966;28;20043;-80
2021/04/07 03:04:42;;;;;;;6.85;1.00;;;;;;;;;;4956010;28;20117;-80
2021/04/07 03:07:08;;;;;;;5.13;0.80;;;;;;;;;;4955794;28;20066;-79
2021/04/07 03:09:34;;;;;;;1.85;0.57;;;;;;;;;;4972935;28;20039;-80
2021/04/07 03:12:00;;;;;;;6.60;0.82;;;;;;;;;;4973218;28;20101;-79
2021/04/07 03:14:26;;;;;;;4.22;0.90;;;;;;;;;;4973001;28;20114;-80
2021/04/07 03:16:53;;;;;;;6.28;1.05;;;;;;;;;;4955832;28;20038;-80
2021/04/07 03:19:19;;;;;;;5.97;0.80;;;;;;;;;;4955794;28;20045;-80
2021/04/07 03:21:45;;;;;;;9.13;1.35;;;;;;;;;;4955736;28;20050;-80
2021/04/07 03:24:11;;;;;;;4.43;0.75;;;;;;;;;;4972732;28;20068;-79
2021/04/07 03:26:43;;;;;;;5.55;0.75;;;;;;;;;;4959520;28;20063;-80
2021/04/07 03:29:09;;;;;;;6.45;1.05;;;;;;;;;;4971702;28;20038;-78
2021/04/07 03:31:35;;;;;;;4.72;0.82;;;;;;;;;;4972850;28;20054;-80
2021/04/07 03:34:01;;;;;;;2.05;0.85;;;;;;;;;;4971943;28;20389;-79
2021/04/07 03:36:27;;;;;;;3.00;0.65;;;;;;;;;;4971466;28;20043;-80
2021/04/07 03:38:53;;;;;;;3.78;0.50;;;;;;;;;;4973604;28;20070;-80
2021/04/07 03:41:20;;;;;;;3.65;0.75;;;;;;;;;;4974966;28;20066;-81
2021/04/07 03:43:46;;;;;;;5.95;0.73;;;;;;;;;;4976118;28;20089;-81
2021/04/07 03:46:12;;;;;;;2.08;0.60;;;;;;;;;;4976198;28;20106;-80
2021/04/07 03:48:38;;;;;;;2.45;0.63;;;;;;;;;;4958939;28;20096;-80
2021/04/07 03:51:04;;;;;;;4.30;0.88;;;;;;;;;;4975016;28;20042;-81
2021/04/07 03:53:32;;;;;;;2.17;0.70;;;;;;;;;;4974925;28;20077;-81
2021/04/07 03:55:58;;;;;;;5.90;0.80;;;;;;;;;;4974695;28;20043;-80
2021/04/07 03:58:24;;;;;;;3.15;0.52;;;;;;;;;;4974743;28;20527;-80
2021/04/07 04:00:51;;;;;;;1.30;0.60;;;;;;;;;;4958660;28;20482;-81
2021/04/07 04:03:17;;;;;;;4.70;0.80;;;;;;;;;;4958639;28;20121;-80
2021/04/07 04:05:43;;;;;;;1.08;0.45;;;;;;;;;;4974394;28;20113;-81
2021/04/07 04:08:09;;;;;;;1.65;0.43;;;;;;;;;;4974624;28;20042;-81
2021/04/07 04:10:38;;;;;;;1.35;0.55;;;;;;;;;;4974554;28;20046;-81
2021/04/07 04:13:04;;;;;;;2.60;0.50;;;;;;;;;;4975871;28;20042;-80
2021/04/07 04:15:30;;;;;;;2.50;0.70;;;;;;;;;;4974393;28;20038;-80
2021/04/07 04:17:56;;;;;;;2.72;0.60;;;;;;;;;;4958416;28;20109;-80
2021/04/07 04:20:22;;;;;;;2.40;0.52;;;;;;;;;;4975852;28;20479;-80
2021/04/07 04:22:49;;;;;;;3.70;0.75;;;;;;;;;;4974320;28;20490;-80
2021/04/07 04:25:16;;;;;;;3.33;0.70;;;;;;;;;;4958344;28;20042;-81
2021/04/07 04:27:42;;;;;;;1.73;0.60;;;;;;;;;;4973983;28;20058;-80
2021/04/07 04:30:11;;;;;;;1.77;0.82;;;;;;;;;;4974237;28;20043;-81
2021/04/07 04:32:37;;;;;;;1.60;0.70;;;;;;;;;;4974318;28;20039;-80
2021/04/07 04:35:03;;;;;;;4.82;0.73;;;;;;;;;;4974017;28;20038;-80
2021/04/07 04:37:29;;;;;;;1.10;0.77;;;;;;;;;;4973915;28;20050;-81
2021/04/07 04:39:55;;;;;;;3.00;0.90;;;;;;;;;;4974054;28;20077;-82
2021/04/07 04:42:21;;;;;;;1.70;0.80;;;;;;;;;;4975024;28;20066;-81
2021/04/07 04:44:48;;;;;;;1.08;0.60;;;;;;;;;;4975107;28;20043;-81
2021/04/07 04:47:14;;;;;;;2.05;0.82;;;;;;;;;;4973780;28;20125;-80
2021/04/07 04:49:40;;;;;;;2.05;0.70;;;;;;;;;;4957459;28;20113;-81
2021/04/07 04:52:06;;;;;;;1.17;0.60;;;;;;;;;;4973179;28;20545;-80
2021/04/07 04:54:33;;;;;;;1.40;0.70;;;;;;;;;;4974082;28;20098;-80
2021/04/07 04:56:59;;;;;;;1.77;1.15;;;;;;;;;;4974860;28;20038;-81
2021/04/07 04:59:25;;;;;;;2.65;0.85;;;;;;;;;;4974786;28;20115;-81
2021/04/07 05:01:51;;;;;;;1.30;0.65;;;;;;;;;;4973621;28;20119;-80
2021/04/07 05:04:18;;;;;;;3.47;0.77;;;;;;;;;;4974668;28;20050;-81
2021/04/07 05:06:44;;;;;;;1.60;0.90;;;;;;;;;;4973475;28;20118;-81
2021/04/07 05:09:10;;;;;;;2.28;0.77;;;;;;;;;;4974620;28;20066;-81
2021/04/07 05:11:36;;;;;;;1.98;0.80;;;;;;;;;;4974740;28;20141;-81
2021/04/07 05:14:02;;;;;;;2.60;0.93;;;;;;;;;;4974571;28;20497;-80
2021/04/07 05:16:28;;;;;;;1.90;0.85;;;;;;;;;;4973239;28;20467;-81
2021/04/07 05:18:54;;;;;;;1.10;0.70;;;;;;;;;;4974436;28;20779;-80
2021/04/07 05:21:20;;;;;;;1.33;0.77;;;;;;;;;;4974323;28;20093;-80
2021/04/07 05:23:46;;;;;;;0.80;0.60;;;;;;;;;;4974349;28;20046;-80
2021/04/07 05:26:13;;;;;;;1.58;0.63;;;;;;;;;;4972985;28;20059;-81
2021/04/07 05:28:42;;;;;;;1.80;0.75;;;;;;;;;;4957407;28;20035;-80
2021/04/07 05:31:11;;;;;;;1.60;0.75;;;;;;;;;;4974251;28;20047;-82
2021/04/07 05:33:37;;;;;;;1.80;1.00;;;;;;;;;;4957250;28;20050;-81
2021/04/07 05:36:04;;;;;;;1.67;0.85;;;;;;;;;;4974084;28;20520;-81
2021/04/07 05:38:31;;;;;;;1.67;0.93;;;;;;;;;;4957038;28;20496;-81
2021/04/07 05:40:57;;;;;;;2.60;1.23;;;;;;;;;;4974008;28;20053;-81
2021/04/07 05:43:23;;;;;;;1.75;1.20;;;;;;;;;;4956960;28;20062;-81
2021/04/07 05:45:49;;;;;;;3.22;1.00;;;;;;;;;;4956632;28;20110;-81
2021/04/07 05:48:15;;;;;;;2.55;1.13;;;;;;;;;;4956896;28;20482;-81
2021/04/07 05:50:42;;;;;;;3.22;1.20;;;;;;;;;;4956888;28;20098;-81
2021/04/07 05:53:08;;;;;;;2.75;0.95;;;;;;;;;;4956931;28;20051;-82
2021/04/07 05:55:35;;;;;;;1.25;0.88;;;;;;;;;;4956639;28;20047;-82
2021/04/07 05:58:07;;;;;;;1.63;0.90;;;;;;;;;;4956543;28;20126;-81
2021/04/07 06:00:34;;;;;;;1.58;1.02;;;;;;;;;;4973764;28;20545;-81
2021/04/07 06:03:00;;;;;;;2.67;1.35;;;;;;;;;;4973410;28;20066;-81
2021/04/07 06:05:29;;;;;;;2.90;1.40;;;;;;;;;;4940685;28;20047;-81
2021/04/07 06:07:55;;;;;;;4.05;1.02;;;;;;;;;;4956873;28;20529;-82
2021/04/07 06:10:21;;;;;;;2.63;1.27;;;;;;;;;;4973577;28;20043;-80
2021/04/07 06:12:48;;;;;;;3.17;1.77;;;;;;;;;;4956385;28;20074;-79
2021/04/07 06:15:14;;;;;;;3.83;1.63;;;;;;;;;;4940405;28;20057;-82
2021/04/07 06:17:41;;;;;;;1.70;0.90;;;;;;;;;;4956543;28;20046;-82
2021/04/07 06:20:11;;;;;;;3.28;1.20;;;;;;;;;;4956284;28;20500;-82
2021/04/07 06:22:37;;;;;;;7.88;2.65;;;;;;;;;;4973382;28;20043;-82
2021/04/07 06:25:04;;;;;;;1.20;1.10;;;;;;;;;;4956323;28;20042;-80
2021/04/07 06:27:30;;;;;;;3.88;1.33;;;;;;;;;;4972970;28;20047;-81
2021/04/07 06:30:00;;;;;;;1.58;1.05;;;;;;;;;;4956257;28;20038;-82
2021/04/07 06:32:26;;;;;;;2.25;1.13;;;;;;;;;;4956673;28;20054;-81
2021/04/07 06:34:52;;;;;;;3.08;0.95;;;;;;;;;;4940184;28;20035;-82
2021/04/07 06:37:18;;;;;;;3.55;1.20;;;;;;;;;;4973291;28;20047;-82
2021/04/07 06:39:44;;;;;;;3.63;1.10;;;;;;;;;;4956364;28;20050;-82
2021/04/07 06:42:12;;;;;;;2.80;1.00;;;;;;;;;;4973317;28;20047;-81
2021/04/07 06:44:38;;;;;;;4.15;1.35;;;;;;;;;;4956232;28;20095;-86
2021/04/07 06:47:04;;;;;;;4.90;1.40;;;;;;;;;;4940233;28;20049;-85
2021/04/07 06:49:35;;;;;;;2.83;1.38;;;;;;;;;;4956811;28;20035;-85
2021/04/07 06:52:02;;;;;;;2.88;0.98;;;;;;;;;;4956556;28;20046;-85
2021/04/07 06:54:37;;;;;;;4.90;1.20;;;;;;;;;;4957323;28;20035;-85
2021/04/07 06:57:05;;;;;;;1.75;0.77;;;;;;;;;;4973073;28;20053;-84
2021/04/07 06:59:31;;;;;;;3.92;1.48;;;;;;;;;;4956092;28;20125;-85
2021/04/07 07:01:57;;;;;;;2.80;1.00;;;;;;;;;;4955934;28;20077;-82
2021/04/07 07:04:23;;;;;;;2.28;1.17;;;;;;;;;;4956098;28;20039;-84
2021/04/07 07:06:53;;;;;;;4.30;1.10;;;;;;;;;;4940029;28;20046;-85
2021/04/07 07:09:19;;;;;;;4.10;1.20;;;;;;;;;;4956013;28;20042;-85
2021/04/07 07:11:49;;;;;;;3.22;1.15;;;;;;;;;;4940089;28;20070;-84
2021/04/07 07:14:15;;;;;;;5.00;1.00;;;;;;;;;;4974644;28;20038;-86
2021/04/07 07:16:50;;;;;;;4.85;1.00;;;;;;;;;;4976667;28;20478;-84
2021/04/07 07:19:30;;;;;;;1.92;0.93;;;;;;;;;;4959468;28;20123;-84
2021/04/07 07:21:57;;;;;;;5.72;1.27;;;;;;;;;;4959482;28;20046;-84
2021/04/07 07:24:30;;;;;;;2.47;1.38;;;;;;;;;;4976547;28;20089;-84
2021/04/07 07:26:56;;;;;;;4.85;1.35;;;;;;;;;;4964531;28;20414;-84
2021/04/07 07:29:26;;;;;;;3.83;1.20;;;;;;;;;;4975364;28;20035;-85
2021/04/07 07:31:58;;;;;;;3.83;1.00;;;;;;;;;;4975232;28;20049;-83
2021/04/07 07:34:25;;;;;;;;;;;;;;;;;;4973894;28;20065;-82
2021/04/07 07:36:51;;;;;;;4.45;1.00;;;;;;;;;;4976014;28;19918;-83
2021/04/07 07:39:22;;;;;;;4.25;1.42;;;;;;;;;;4956730;28;20505;-83
2021/04/07 07:41:49;;;;;;;4.32;1.25;;;;;;;;;;4955390;28;20055;-83
2021/04/07 07:44:15;;;;;;;4.13;1.40;;;;;;;;;;4970396;28;20114;-84
2021/04/07 07:46:41;;;;;;;4.18;1.55;;;;;;;;;;4955216;28;20043;-83
2021/04/07 07:49:14;;;;;;;6.00;1.20;;;;;;;;;;4956438;28;20440;-83
2021/04/07 07:51:44;;;;;;;6.43;1.35;;;;;;;;;;4971366;28;20043;-84
2021/04/07 07:54:13;;;;;;;3.88;1.02;;;;;;;;;;4971266;28;20035;-83
2021/04/07 07:56:40;;;;;;;6.63;1.50;;;;;;;;;;4970172;28;20047;-82
2021/04/07 07:59:07;;;;;;;5.28;1.52;;;;;;;;;;4974398;28;20442;-83
2021/04/07 08:01:50;;;;;;;6.18;1.40;;;;;;;;;;4974383;28;20073;-83
2021/04/07 08:04:16;;;;;;;5.78;1.17;;;;;;;;;;4974695;28;20042;-83
2021/04/07 08:06:43;;;;;;;7.15;1.50;;;;;;;;;;4975640;28;20043;-83
2021/04/07 08:09:12;;;;;;;5.47;1.10;;;;;;;;;;4975459;28;20474;-83
2021/04/07 08:11:38;;;;;;;6.13;1.23;;;;;;;;;;4975317;28;20166;-83
2021/04/07 08:14:04;;;;;;;9.15;1.50;;;;;;;;;;4958174;28;20039;-81
2021/04/07 08:16:31;;;;;;;7.70;1.13;;;;;;;;;;4973909;28;20034;-83
2021/04/07 08:18:57;;;;;;;7.65;1.17;;;;;;;;;;4958167;28;20042;-83
2021/04/07 08:21:26;;;;;;;10.43;1.83;;;;;;;;;;4975070;28;20039;-80
2021/04/07 08:23:54;;;;;;;8.93;2.10;;;;;;;;;;4973791;28;20462;-80
2021/04/07 08:26:20;;;;;;;8.93;1.30;;;;;;;;;;4973141;28;20081;-80
2021/04/07 08:28:46;;;;;;;5.88;1.65;;;;;;;;;;4973839;28;20532;-81
2021/04/07 08:31:13;;;;;;;6.65;1.55;;;;;;;;;;4973788;28;20126;-81
2021/04/07 08:33:39;;;;;;;7.15;1.75;;;;;;;;;;4957413;28;20066;-81
2021/04/07 08:36:05;;;;;;;6.60;1.52;;;;;;;;;;4973908;28;20043;-82
2021/04/07 08:38:32;;;;;;;11.50;1.30;;;;;;;;;;4973775;28;20061;-82
2021/04/07 08:41:08;;;;;;;12.05;1.60;;;;;;;;;;4957762;28;20042;-82
2021/04/07 08:43:34;;;;;;;10.27;2.03;;;;;;;;;;4973762;28;20094;-82
2021/04/07 08:46:00;;;;;;;9.48;1.45;;;;;;;;;;4973610;28;20045;-82
2021/04/07 08:48:35;;;;;;;8.90;1.17;;;;;;;;;;4973560;28;20038;-81
2021/04/07 08:51:04;;;;;;;12.23;1.45;;;;;;;;;;4974769;28;20470;-81
2021/04/07 08:53:30;;;;;;;10.70;1.60;;;;;;;;;;4973411;28;20042;-81
2021/04/07 08:56:03;;;;;;;12.73;1.92;;;;;;;;;;4973352;28;20038;-80
2021/04/07 08:58:29;;;;;;;7.72;1.33;;;;;;;;;;4973197;28;20109;-81
2021/04/07 09:00:56;;;;;;;9.52;1.30;;;;;;;;;;4973314;28;20042;-81
2021/04/07 09:03:23;;;;;;;12.68;2.10;;;;;;;;;;4941353;28;20446;-81
2021/04/07 09:05:49;;;;;;;13.27;1.90;;;;;;;;;;4974353;28;20513;-82
2021/04/07 09:08:16;;;;;;;12.88;2.10;;;;;;;;;;4973299;28;20039;-82
2021/04/07 09:10:43;;;;;;;13.23;1.95;;;;;;;;;;4973214;28;20039;-82
2021/04/07 09:13:10;;;;;;;15.18;1.95;;;;;;;;;;4973205;28;20478;-82
2021/04/07 09:15:45;;;;;;;13.85;1.98;;;;;;;;;;4974199;28;20434;-82
2021/04/07 09:18:11;;;;;;;11.18;1.42;;;;;;;;;;4972962;28;20062;-82
2021/04/07 09:20:47;;;;;;;16.25;1.77;;;;;;;;;;4974154;28;20039;-82
2021/04/07 09:23:17;;;;;;;8.55;1.42;;;;;;;;;;4973033;28;20043;-80
2021/04/07 09:26:06;;;;;;;12.80;1.45;;;;;;;;;;4972884;28;20045;-81
2021/04/07 09:28:33;;;;;;;5.60;1.20;;;;;;;;;;4968580;28;20058;-80
2021/04/07 09:31:25;;;;;;;10.30;1.98;;;;;;;;;;4973942;28;20414;-80
2021/04/07 09:33:52;;;;;;;10.77;1.30;;;;;;;;;;4971037;28;20071;-80
2021/04/07 09:36:19;;;;;;;6.80;1.80;;;;;;;;;;4973303;28;20101;-81
2021/04/07 09:38:49;;;;;;;6.63;1.23;;;;;;;;;;4972722;28;20077;-81
2021/04/07 09:41:32;;;;;;;12.50;2.28;;;;;;;;;;4973580;28;20046;-81
2021/04/07 09:43:58;;;;;;;14.20;2.20;;;;;;;;;;4972440;28;20049;-80
2021/04/07 09:46:24;;;;;;;15.60;1.98;;;;;;;;;;4972556;28;20035;-82
2021/04/07 09:48:52;;;;;;;16.05;2.78;;;;;;;;;;4973870;28;20038;-82
2021/04/07 09:51:20;;;;;;;11.52;2.03;;;;;;;;;;4972675;28;20054;-81
2021/04/07 09:53:46;;;;;;;21.52;2.80;;;;;;;;;;4972333;28;20061;-81
2021/04/07 09:56:12;;;;;;;10.32;2.10;;;;;;;;;;4972375;28;20109;-81
2021/04/07 09:58:42;;;;;;;13.05;2.80;;;;;;;;;;4972356;28;20041;-82
2021/04/07 10:01:09;;;;;;;22.85;3.20;;;;;;;;;;4972235;28;20473;-82
2021/04/07 10:03:35;;;;;;;16.85;2.65;;;;;;;;;;4973850;28;20031;-82
2021/04/07 10:06:01;;;;;;;17.27;2.28;;;;;;;;;;4972940;28;20121;-81
2021/04/07 10:08:27;;;;;;;14.90;2.35;;;;;;;;;;4973307;28;20081;-81
2021/04/07 10:10:54;;;;;;;17.70;3.08;;;;;;;;;;4972254;28;20041;-82
2021/04/07 10:13:20;;;;;;;20.67;2.35;;;;;;;;;;4973482;28;20074;-82
2021/04/07 10:15:46;;;;;;;13.57;2.50;;;;;;;;;;4972117;28;20062;-83
2021/04/07 10:18:12;;;;;;;17.33;2.10;;;;;;;;;;4972080;28;20038;-81
2021/04/07 10:20:38;;;;;;;11.32;2.00;;;;;;;;;;4972050;28;20078;-82
2021/04/07 10:23:08;;;;;;;16.20;2.13;;;;;;;;;;4972015;28;20207;-81
2021/04/07 10:25:34;;;;;;;15.85;1.92;;;;;;;;;;4956257;28;20062;-81
2021/04/07 10:28:00;;;;;;;12.48;1.98;;;;;;;;;;4971823;28;20085;-81
2021/04/07 10:30:26;;;;;;;13.30;2.25;;;;;;;;;;4971930;28;20118;-81
2021/04/07 10:32:56;;;;;;;9.00;1.50;;;;;;;;;;4954523;28;20166;-81
2021/04/07 10:35:25;;;;;;;15.10;1.98;;;;;;;;;;4972104;28;20038;-82
2021/04/07 10:38:12;;;;;;;13.15;2.10;;;;;;;;;;4956139;28;20046;-81
2021/04/07 10:40:44;;;;;;;6.57;1.40;;;;;;;;;;4973171;28;20051;-81
2021/04/07 10:43:11;;;;;;;14.07;1.58;;;;;;;;;;4972066;28;20043;-81
2021/04/07 10:45:38;;;;;;;10.80;1.60;;;;;;;;;;4971349;28;20043;-81
2021/04/07 10:48:04;;;;;;;11.02;1.65;;;;;;;;;;4973243;28;20035;-82
2021/04/07 10:50:31;;;;;;;13.00;1.90;;;;;;;;;;4959991;28;20041;-82
2021/04/07 10:52:57;;;;;;;12.68;2.05;;;;;;;;;;4975885;28;20043;-81
2021/04/07 10:55:24;;;;;;;15.90;2.03;;;;;;;;;;4977097;28;20063;-81
2021/04/07 10:57:52;;;;;;;12.77;1.65;;;;;;;;;;4976891;28;20039;-82
2021/04/07 11:00:24;;;;;;;16.98;2.30;;;;;;;;;;4969860;28;20483;-82
2021/04/07 11:02:52;;;;;;;15.60;2.35;;;;;;;;;;4988079;28;20055;-82
2021/04/07 11:05:19;;;;;;;17.42;2.58;;;;;;;;;;4975290;28;20478;-82
2021/04/07 11:07:45;;;;;;;12.00;2.08;;;;;;;;;;4955856;28;20066;-82
2021/04/07 11:10:12;;;;;;;12.30;2.40;;;;;;;;;;4954508;28;20047;-83
2021/04/07 11:12:39;;;;;;;9.05;1.83;;;;;;;;;;4957398;29;20045;-82
2021/04/07 11:15:08;;;;;;;16.33;2.28;;;;;;;;;;4972150;28;20046;-82
2021/04/07 11:17:34;;;;;;;38.53;3.28;;;;;;;;;;4971981;28;20039;-81
2021/04/07 11:20:00;;;;;;;23.60;2.15;;;;;;;;;;4972099;28;20090;-81
2021/04/07 11:22:26;;;;;;;12.60;1.73;;;;;;;;;;4972220;28;20046;-81
2021/04/07 11:24:53;;;;;;;8.25;1.65;;;;;;;;;;4957120;29;20041;-83
2021/04/07 11:27:19;;;;;;;9.15;1.38;;;;;;;;;;4935328;29;20079;-84
2021/04/07 11:29:45;;;;;;;14.60;1.55;;;;;;;;;;4932414;29;20525;-82
2021/04/07 11:32:14;;;;;;;13.73;1.90;;;;;;;;;;4940057;29;20047;-82
2021/04/07 11:34:50;;;;;;;12.25;2.33;;;;;;;;;;4956905;29;20039;-83
2021/04/07 11:37:32;;;;;;;12.55;1.77;;;;;;;;;;4925714;29;20035;-82
2021/04/07 11:40:05;;;;;;;10.52;1.67;;;;;;;;;;4939683;29;20097;-82
2021/04/07 11:45:04;;;;;;;8.70;1.67;;;;;;;;;;4940611;29;20039;-84
2021/04/07 11:47:29;;;;;;;10.20;1.67;;;;;;;;;;4939622;29;20039;-83
2021/04/07 11:49:56;;;;;;;8.77;1.38;;;;;;;;;;4956871;29;20113;-82
2021/04/07 11:52:22;;;;;;;7.05;1.35;;;;;;;;;;4939637;29;20054;-82
2021/04/07 11:54:48;;;;;;;6.07;1.00;;;;;;;;;;4956606;29;20044;-83
2021/04/07 11:57:14;;;;;;;11.60;1.40;;;;;;;;;;4939562;29;20049;-83
2021/04/07 11:59:40;;;;;;;10.02;1.35;;;;;;;;;;4938940;29;20367;-82
2021/04/07 12:02:06;;;;;;;14.30;1.70;;;;;;;;;;4939357;29;20126;-82
2021/04/07 12:04:33;;;;;;;10.98;1.65;;;;;;;;;;4923700;29;20043;-82
2021/04/07 12:07:01;;;;;;;7.57;1.52;;;;;;;;;;4939428;29;20090;-82
2021/04/07 12:09:27;;;;;;;11.02;1.65;;;;;;;;;;4939399;29;20616;-83
2021/04/07 12:11:53;;;;;;;19.80;2.30;;;;;;;;;;4956553;29;20501;-83
2021/04/07 12:14:19;;;;;;;14.85;1.98;;;;;;;;;;4939418;29;20039;-82
2021/04/07 12:16:45;;;;;;;11.32;1.80;;;;;;;;;;4939325;29;20119;-82
2021/04/07 12:19:11;;;;;;;19.17;1.67;;;;;;;;;;4939333;29;20076;-82
2021/04/07 12:21:38;;;;;;;11.60;2.28;;;;;;;;;;4956112;29;20425;-81
2021/04/07 12:24:05;;;;;;;13.60;1.80;;;;;;;;;;4923364;29;20039;-82
2021/04/07 12:26:33;;;;;;;13.40;2.35;;;;;;;;;;4938682;29;20070;-82
2021/04/07 12:28:59;;;;;;;15.93;1.83;;;;;;;;;;4956387;29;20031;-81
2021/04/07 12:31:26;;;;;;;16.75;1.70;;;;;;;;;;4955997;29;20043;-83
2021/04/07 12:33:56;;;;;;;13.77;1.90;;;;;;;;;;4939073;29;20114;-84
2021/04/07 12:36:25;;;;;;;10.85;1.30;;;;;;;;;;4955917;29;20050;-84
2021/04/07 12:38:51;;;;;;;9.88;1.83;;;;;;;;;;4938690;29;20039;-82
2021/04/07 12:41:23;;;;;;;9.57;1.42;;;;;;;;;;4938781;29;20055;-82
2021/04/07 12:43:49;;;;;;;8.00;1.63;;;;;;;;;;4955877;29;20043;-82
2021/04/07 12:46:15;;;;;;;13.30;1.58;;;;;;;;;;4955634;29;20040;-82
2021/04/07 12:48:43;;;;;;;12.82;1.83;;;;;;;;;;4938676;29;20063;-82
2021/04/07 12:51:09;;;;;;;9.43;1.30;;;;;;;;;;4935664;29;20058;-81
2021/04/07 12:53:35;;;;;;;8.60;1.55;;;;;;;;;;4931466;29;20430;-81
2021/04/07 12:56:01;;;;;;;7.50;1.20;;;;;;;;;;4936896;29;20407;-82
2021/04/07 12:58:27;;;;;;;6.57;1.00;;;;;;;;;;4936297;29;20046;-82
2021/04/07 13:00:53;;;;;;;10.85;1.63;;;;;;;;;;4952475;29;20035;-82
2021/04/07 13:03:19;;;;;;;8.20;1.10;;;;;;;;;;4938348;29;20047;-82
2021/04/07 13:05:47;;;;;;;6.35;1.10;;;;;;;;;;4955339;29;20047;-81
2021/04/07 13:08:13;;;;;;;5.32;1.20;;;;;;;;;;4920635;29;20035;-83
2021/04/07 13:10:39;;;;;;;3.63;1.38;;;;;;;;;;4903476;29;20039;-83
2021/04/07 13:13:05;;;;;;;7.22;1.20;;;;;;;;;;4935515;29;20421;-82
2021/04/07 13:15:32;;;;;;;7.50;0.98;;;;;;;;;;4936237;29;20484;-83
2021/04/07 13:17:58;;;;;;;7.38;1.02;;;;;;;;;;4935793;29;20051;-82
2021/04/07 13:20:27;;;;;;;3.15;0.98;;;;;;;;;;4934531;29;20074;-82
2021/04/07 13:22:54;;;;;;;4.97;1.10;;;;;;;;;;4919623;29;20273;-83
2021/04/07 13:25:21;;;;;;;8.35;1.20;;;;;;;;;;4936781;29;20074;-82
2021/04/07 13:27:47;;;;;;;5.82;1.00;;;;;;;;;;4937525;29;20051;-82
2021/04/07 13:30:14;;;;;;;7.22;1.00;;;;;;;;;;4954772;29;20047;-83
2021/04/07 13:33:08;;;;;;;6.43;0.88;;;;;;;;;;4937707;29;20043;-83
2021/04/07 13:35:41;;;;;;;9.45;1.45;;;;;;;;;;4937479;29;20121;-82
2021/04/07 13:38:18;;;;;;;4.85;0.93;;;;;;;;;;4937486;29;20054;-83
2021/04/07 13:43:10;;;;;;;5.40;1.27;;;;;;;;;;4937512;29;20051;-83
2021/04/07 13:45:36;;;;;;;9.27;1.35;;;;;;;;;;4937589;29;20493;-82
2021/04/07 13:48:25;;;;;;;9.70;1.63;;;;;;;;;;4937659;29;20270;-83
2021/04/07 13:50:51;;;;;;;13.63;1.88;;;;;;;;;;4921484;29;20054;-83
2021/04/07 13:53:17;;;;;;;9.07;1.60;;;;;;;;;;4954579;29;20043;-83
2021/04/07 13:55:47;;;;;;;10.70;2.05;;;;;;;;;;4937487;29;20066;-83
2021/04/07 13:58:13;;;;;;;7.55;1.60;;;;;;;;;;4921868;29;20101;-83
2021/04/07 14:00:40;;;;;;;11.38;1.65;;;;;;;;;;4954471;29;20479;-82
2021/04/07 14:03:06;;;;;;;4.97;1.50;;;;;;;;;;4937404;29;20491;-82
2021/04/07 14:05:32;;;;;;;7.75;1.38;;;;;;;;;;4954541;29;20035;-82
2021/04/07 14:08:00;;;;;;;6.63;1.20;;;;;;;;;;4953859;29;20047;-82
2021/04/07 14:10:26;;;;;;;9.02;1.80;;;;;;;;;;4954253;29;20039;-83
2021/04/07 14:15:21;;;;;;;8.55;1.40;;;;;;;;;;4937646;29;20058;-82
2021/04/07 14:17:47;;;;;;;8.07;1.30;;;;;;;;;;4921346;29;20047;-83
2021/04/07 14:20:14;;;;;;;11.30;1.50;;;;;;;;;;4954155;29;20098;-83
2021/04/07 14:22:40;;;;;;;10.57;1.63;;;;;;;;;;4936798;29;20043;-83
2021/04/07 14:25:06;;;;;;;10.93;1.95;;;;;;;;;;4937170;29;20054;-82
2021/04/07 14:27:33;;;;;;;12.20;1.80;;;;;;;;;;4953982;29;20487;-83
2021/04/07 14:29:59;;;;;;;8.27;1.30;;;;;;;;;;4937106;29;20042;-82
2021/04/07 14:32:25;;;;;;;5.53;1.20;;;;;;;;;;4937135;29;20313;-82
2021/04/07 14:34:51;;;;;;;7.80;1.27;;;;;;;;;;4936779;29;20470;-82
2021/04/07 14:37:17;;;;;;;9.00;1.38;;;;;;;;;;4936624;29;20035;-84
2021/04/07 14:39:43;;;;;;;7.70;1.75;;;;;;;;;;4936627;29;20062;-84
2021/04/07 14:42:10;;;;;;;3.42;1.25;;;;;;;;;;4936489;29;20475;-82
2021/04/07 14:44:36;;;;;;;4.35;0.93;;;;;;;;;;4953833;29;20382;-83
2021/04/07 14:47:02;;;;;;;8.02;1.02;;;;;;;;;;4953651;29;20031;-84
2021/04/07 14:49:28;;;;;;;8.48;0.93;;;;;;;;;;4936573;29;20067;-83